createdAt,value
2023-02-16T00:00:00.687Z,0.0
2023-02-16T00:05:00.653Z,0.0
2023-02-16T00:10:00.695Z,0.0
2023-02-16T00:15:01.006Z,0.0
2023-02-16T00:20:00.723Z,0.0
2023-02-16T00:25:00.661Z,0.0
2023-02-16T00:30:00.828Z,0.0
2023-02-16T00:35:00.688Z,0.0
2023-02-16T00:40:00.655Z,0.0
2023-02-16T00:45:00.640Z,0.0
2023-02-16T00:50:00.646Z,0.0
2023-02-16T00:55:00.619Z,0.2
2023-02-16T01:00:00.969Z,0.1
2023-02-16T01:05:00.920Z,0.1
2023-02-16T01:10:01.064Z,0.3
2023-02-16T01:15:00.671Z,1.6
2023-02-16T01:20:00.641Z,1.5
2023-02-16T01:25:00.682Z,0.1
2023-02-16T01:30:00.754Z,0.0
2023-02-16T01:35:00.647Z,0.0
2023-02-16T01:40:00.720Z,0.1
2023-02-16T01:45:00.649Z,0.4
2023-02-16T01:50:03.746Z,1.2
2023-02-16T01:55:00.698Z,0.2
2023-02-16T02:00:00.695Z,0.9
2023-02-16T02:05:00.720Z,0.3
2023-02-16T02:10:00.675Z,0.0
2023-02-16T02:15:00.736Z,0.1
2023-02-16T02:20:00.686Z,0.0
2023-02-16T02:25:00.697Z,0.0
2023-02-16T02:30:00.903Z,0.6
2023-02-16T02:35:00.664Z,0.8
2023-02-16T02:40:00.718Z,0.6
2023-02-16T02:45:00.713Z,0.7
2023-02-16T02:50:00.750Z,0.0
2023-02-16T02:55:00.698Z,0.3
2023-02-16T03:00:00.786Z,0.2
2023-02-16T03:05:00.774Z,0.7
2023-02-16T03:10:00.754Z,0.9
2023-02-16T03:15:00.653Z,0.2
2023-02-16T03:20:00.719Z,0.6
2023-02-16T03:25:00.716Z,0.6
2023-02-16T03:30:00.823Z,0.2
2023-02-16T03:35:00.695Z,1.1
2023-02-16T03:40:00.898Z,0.4
2023-02-16T03:45:00.680Z,0.5
2023-02-16T03:50:00.752Z,0.2
2023-02-16T03:55:00.692Z,0.1
2023-02-16T04:00:04.094Z,0.6
2023-02-16T04:05:00.701Z,1.4
2023-02-16T04:10:00.735Z,0.8
2023-02-16T04:15:00.702Z,0.8
2023-02-16T04:20:00.746Z,0.3
2023-02-16T04:25:00.688Z,0.6
2023-02-16T04:30:00.933Z,0.2
2023-02-16T04:35:00.626Z,1.1
2023-02-16T04:40:00.714Z,0.2
2023-02-16T04:45:03.921Z,0.0
2023-02-16T04:50:00.674Z,0.2
2023-02-16T04:55:00.725Z,1.0
2023-02-16T05:00:00.782Z,0.3
2023-02-16T05:05:00.740Z,1.0
2023-02-16T05:10:00.731Z,0.8
2023-02-16T05:15:00.831Z,0.6
2023-02-16T05:20:00.711Z,1.6
2023-02-16T05:25:00.707Z,0.2
2023-02-16T05:30:00.879Z,0.6
2023-02-16T05:35:00.674Z,0.8
2023-02-16T05:40:00.686Z,0.2
2023-02-16T05:45:00.701Z,0.1
2023-02-16T05:50:00.768Z,0.9
2023-02-16T05:55:00.646Z,0.1
2023-02-16T06:00:00.705Z,0.2
2023-02-16T06:05:00.707Z,0.0
2023-02-16T06:10:00.719Z,1.1
2023-02-16T06:15:00.686Z,0.8
2023-02-16T06:20:00.647Z,0.2
2023-02-16T06:25:00.707Z,0.5
2023-02-16T06:30:00.706Z,0.3
2023-02-16T06:35:00.689Z,0.0
2023-02-16T06:40:00.768Z,0.3
2023-02-16T06:45:00.654Z,2.2
2023-02-16T06:50:00.897Z,0.2
2023-02-16T06:55:00.679Z,0.2
2023-02-16T07:00:00.693Z,0.3
2023-02-16T07:05:00.778Z,0.0
2023-02-16T07:10:00.718Z,0.6
2023-02-16T07:15:00.659Z,1.1
2023-02-16T07:20:00.720Z,0.6
2023-02-16T07:25:00.694Z,0.5
2023-02-16T07:30:00.972Z,0.2
2023-02-16T07:35:00.749Z,0.9
2023-02-16T07:40:00.776Z,0.0
2023-02-16T07:45:00.676Z,0.4
2023-02-16T07:50:00.778Z,2.0
2023-02-16T07:55:00.682Z,1.4
2023-02-16T08:00:01.006Z,1.4
2023-02-16T08:05:00.762Z,1.7
2023-02-16T08:10:00.701Z,1.9
2023-02-16T08:15:00.667Z,1.8
2023-02-16T08:20:00.709Z,1.7
2023-02-16T08:25:00.703Z,2.7
2023-02-16T08:30:00.777Z,1.6
2023-02-16T08:35:00.735Z,1.8
2023-02-16T08:40:00.915Z,1.6
2023-02-16T08:45:00.702Z,1.2
2023-02-16T08:50:00.774Z,3.1
2023-02-16T08:55:00.637Z,2.5
2023-02-16T09:00:00.707Z,4.9
2023-02-16T09:05:00.740Z,5.6
2023-02-16T09:10:00.740Z,3.1
2023-02-16T09:15:00.712Z,3.8
2023-02-16T09:20:00.742Z,1.0
2023-02-16T09:25:00.674Z,1.8
2023-02-16T09:30:00.899Z,2.0
2023-02-16T09:35:00.687Z,2.4
2023-02-16T09:40:00.603Z,3.3
2023-02-16T09:45:00.673Z,3.2
2023-02-16T09:50:00.756Z,3.3
2023-02-16T09:55:00.700Z,5.8
2023-02-16T10:00:00.723Z,4.7
2023-02-16T10:05:00.757Z,6.9
2023-02-16T10:10:00.735Z,8.5
2023-02-16T10:15:00.616Z,7.9
2023-02-16T10:20:00.770Z,5.5
2023-02-16T10:25:00.676Z,6.6
2023-02-16T10:30:00.813Z,6.6
2023-02-16T10:35:00.680Z,7.0
2023-02-16T10:40:00.751Z,9.1
2023-02-16T10:45:00.674Z,8.9
2023-02-16T10:50:00.656Z,5.5
2023-02-16T10:55:00.691Z,7.1
2023-02-16T11:00:00.782Z,5.6
2023-02-16T11:05:00.686Z,6.5
2023-02-16T11:10:00.715Z,7.1
2023-02-16T11:15:00.703Z,8.8
2023-02-16T11:20:02.312Z,7.7
2023-02-16T11:25:00.649Z,4.3
2023-02-16T11:30:00.833Z,3.7
2023-02-16T11:35:00.682Z,6.3
2023-02-16T11:40:00.741Z,3.9
2023-02-16T11:45:00.725Z,5.5
2023-02-16T11:50:00.662Z,4.9
2023-02-16T11:55:00.652Z,7.9
2023-02-16T12:00:00.693Z,8.4
2023-02-16T12:05:00.832Z,7.9
2023-02-16T12:10:00.713Z,8.0
2023-02-16T12:15:00.818Z,9.8
2023-02-16T12:20:00.636Z,6.1
2023-02-16T12:25:00.710Z,6.9
2023-02-16T12:30:00.766Z,5.3
2023-02-16T12:35:00.651Z,8.5
2023-02-16T12:40:00.685Z,7.3
2023-02-16T12:45:00.659Z,8.2
2023-02-16T12:50:00.650Z,8.7
2023-02-16T12:55:00.779Z,6.6
2023-02-16T13:00:00.703Z,8.0
2023-02-16T13:05:00.665Z,5.3
2023-02-16T13:10:00.638Z,7.9
2023-02-16T13:15:00.663Z,8.8
2023-02-16T13:20:04.359Z,3.9
2023-02-16T13:25:00.757Z,8.5
2023-02-16T13:30:00.882Z,6.1
2023-02-16T13:35:00.666Z,4.7
2023-02-16T13:40:00.673Z,5.7
2023-02-16T13:45:00.690Z,7.4
2023-02-16T13:50:00.680Z,2.0
2023-02-16T13:55:00.655Z,4.9
2023-02-16T14:00:00.644Z,4.1
2023-02-16T14:05:00.626Z,6.5
2023-02-16T14:10:00.628Z,4.3
2023-02-16T14:15:00.814Z,2.0
2023-02-16T14:20:00.698Z,4.0
2023-02-16T14:25:00.621Z,3.6
2023-02-16T14:30:00.834Z,2.3
2023-02-16T14:35:00.649Z,1.9
2023-02-16T14:40:08.793Z,1.5
2023-02-16T14:45:00.906Z,4.5
2023-02-16T14:50:00.648Z,6.1
2023-02-16T14:55:00.655Z,3.8
2023-02-16T15:00:00.721Z,2.8
2023-02-16T15:05:00.656Z,1.5
2023-02-16T15:10:00.717Z,1.4
2023-02-16T15:15:00.714Z,3.3
2023-02-16T15:20:00.682Z,2.1
2023-02-16T15:25:00.627Z,3.4
2023-02-16T15:30:00.784Z,4.7
2023-02-16T15:35:00.625Z,1.2
2023-02-16T15:40:24.781Z,1.4
2023-02-16T15:45:00.687Z,0.9
2023-02-16T15:50:00.723Z,1.8
2023-02-16T15:55:00.822Z,3.1
2023-02-16T16:00:00.654Z,2.7
2023-02-16T16:05:00.914Z,1.7
2023-02-16T16:10:00.682Z,1.2
2023-02-16T16:15:00.707Z,1.6
2023-02-16T16:20:00.720Z,3.1
2023-02-16T16:25:00.641Z,2.2
2023-02-16T16:30:00.689Z,1.8
2023-02-16T16:35:00.680Z,1.3
2023-02-16T16:40:00.650Z,1.0
2023-02-16T16:45:02.642Z,2.2
2023-02-16T16:50:00.651Z,0.9
2023-02-16T16:55:00.673Z,1.3
2023-02-16T17:00:00.704Z,2.4
2023-02-16T17:05:02.678Z,0.9
2023-02-16T17:10:02.699Z,1.0
2023-02-16T17:15:00.654Z,1.5
2023-02-16T17:20:00.653Z,0.4
2023-02-16T17:25:00.619Z,0.8
2023-02-16T17:30:00.844Z,1.2
2023-02-16T17:35:00.663Z,0.1
2023-02-16T17:40:00.619Z,0.0
2023-02-16T17:45:00.639Z,0.4
2023-02-16T17:50:00.700Z,1.8
2023-02-16T17:55:00.645Z,1.4
2023-02-16T18:00:00.719Z,0.5
2023-02-16T18:05:00.705Z,0.4
2023-02-16T18:10:00.709Z,0.3
2023-02-16T18:15:02.810Z,1.4
2023-02-16T18:20:00.646Z,0.2
2023-02-16T18:25:00.769Z,0.6
2023-02-16T18:30:00.905Z,0.5
2023-02-16T18:35:00.614Z,2.0
2023-02-16T18:40:00.706Z,3.2
2023-02-16T18:45:00.672Z,3.6
2023-02-16T18:50:00.655Z,5.4
2023-02-16T18:55:00.670Z,4.1
2023-02-16T19:00:00.632Z,4.3
2023-02-16T19:05:00.698Z,5.5
2023-02-16T19:10:00.682Z,5.3
2023-02-16T19:15:00.685Z,5.3
2023-02-16T19:20:00.672Z,4.0
2023-02-16T19:25:00.662Z,5.9
2023-02-16T19:30:00.808Z,4.6
2023-02-16T19:35:00.750Z,3.5
2023-02-16T19:40:00.768Z,4.6
2023-02-16T19:45:00.691Z,3.8
2023-02-16T19:50:00.725Z,1.8
2023-02-16T19:55:00.665Z,3.0
2023-02-16T20:00:00.640Z,3.5
2023-02-16T20:05:00.630Z,2.5
2023-02-16T20:10:00.698Z,6.0
2023-02-16T20:15:00.738Z,6.0
2023-02-16T20:20:00.715Z,7.3
2023-02-16T20:25:00.839Z,7.6
2023-02-16T20:30:00.777Z,2.5
2023-02-16T20:35:00.667Z,4.0
2023-02-16T20:40:00.687Z,3.1
2023-02-16T20:45:00.679Z,2.2
2023-02-16T20:50:00.689Z,3.0
2023-02-16T20:55:00.649Z,1.9
2023-02-16T21:00:00.663Z,1.3
2023-02-16T21:05:00.633Z,2.4
2023-02-16T21:10:02.662Z,2.2
2023-02-16T21:15:00.623Z,3.1
2023-02-16T21:20:00.611Z,2.1
2023-02-16T21:25:00.662Z,1.7
2023-02-16T21:30:00.808Z,2.9
2023-02-16T21:35:00.630Z,2.1
2023-02-16T21:40:00.664Z,1.8
2023-02-16T21:45:00.632Z,2.9
2023-02-16T21:50:00.628Z,3.7
2023-02-16T21:55:00.633Z,3.1
2023-02-16T22:00:00.736Z,4.9
2023-02-16T22:05:00.914Z,3.4
2023-02-16T22:10:00.683Z,3.8
2023-02-16T22:15:00.652Z,2.6
2023-02-16T22:20:00.662Z,4.1
2023-02-16T22:25:00.643Z,4.4
2023-02-16T22:30:00.779Z,3.5
2023-02-16T22:35:00.761Z,3.0
2023-02-16T22:40:00.644Z,1.1
2023-02-16T22:45:00.648Z,2.1
2023-02-16T22:50:00.634Z,2.2
2023-02-16T22:55:00.659Z,3.1
2023-02-16T23:00:00.860Z,3.7
2023-02-16T23:05:00.659Z,3.1
2023-02-16T23:10:00.648Z,3.9
2023-02-16T23:15:00.650Z,2.9
2023-02-16T23:20:00.672Z,2.7
2023-02-16T23:25:00.639Z,4.3
2023-02-16T23:30:00.856Z,4.8
2023-02-16T23:35:00.637Z,3.9
2023-02-16T23:40:00.866Z,3.5
2023-02-16T23:45:00.675Z,4.0
2023-02-16T23:50:00.621Z,5.5
2023-02-16T23:55:00.656Z,6.3
